Time;durP1;ratioP1;P1;durP2;ratioP2;P2;SDS_P1;SDS_P2;PMS_P1;PMS_P2;Temp;Humidity;BMP_temperature;BMP_pressure;BME280_temperature;BME280_humidity;BME280_pressure;Samples;Min_cycle;Max_cycle;Signal;HPM_P1;HPM_P2
2023/04/19 00:02:00;;;;;;;7.22;5.28;;;;;;;12.56;52.83;101043.72;4993495;28;20051;-78
2023/04/19 00:04:27;;;;;;;8.00;5.43;;;;;;;12.53;52.62;101048.28;4992950;28;20498;-79
2023/04/19 00:06:54;;;;;;;8.32;5.57;;;;;;;12.50;52.75;101049.28;4992456;28;20062;-79
2023/04/19 00:09:20;;;;;;;7.35;5.47;;;;;;;12.46;52.74;101045.94;4993297;28;20057;-78
2023/04/19 00:11:47;;;;;;;7.03;4.78;;;;;;;12.44;52.80;101041.63;4993009;28;20137;-79
2023/04/19 00:14:13;;;;;;;5.95;4.80;;;;;;;12.39;52.93;101041.84;4993106;28;20058;-79
2023/04/19 00:16:40;;;;;;;7.00;4.80;;;;;;;12.35;52.83;101041.13;4992219;28;20128;-79
2023/04/19 00:19:07;;;;;;;7.07;4.97;;;;;;;12.31;52.95;101038.66;4992942;28;20050;-79
2023/04/19 00:21:34;;;;;;;8.45;5.30;;;;;;;12.28;52.99;101033.50;4992877;28;20082;-79
2023/04/19 00:24:01;;;;;;;6.35;5.10;;;;;;;12.23;53.19;101031.09;4991690;28;20051;-78
2023/04/19 00:26:28;;;;;;;7.57;5.03;;;;;;;12.20;53.20;101033.84;4975105;28;20146;-79
2023/04/19 00:28:54;;;;;;;6.30;4.90;;;;;;;12.15;53.21;101031.41;4992467;28;20057;-78
2023/04/19 00:31:21;;;;;;;7.75;5.70;;;;;;;12.12;53.30;101023.63;4992620;28;20050;-78
2023/04/19 00:33:48;;;;;;;9.10;5.40;;;;;;;12.07;53.17;101026.47;4992647;28;20509;-80
2023/04/19 00:36:14;;;;;;;8.88;5.30;;;;;;;12.04;53.48;101031.84;4974783;28;20066;-79
2023/04/19 00:38:41;;;;;;;8.90;5.30;;;;;;;12.01;53.46;101025.84;4992023;28;20057;-79
2023/04/19 00:41:07;;;;;;;10.55;5.28;;;;;;;11.97;53.44;101027.75;4992549;28;20054;-78
2023/04/19 00:43:34;;;;;;;7.45;5.22;;;;;;;11.95;53.62;101032.22;4991365;28;20137;-78
2023/04/19 00:46:01;;;;;;;6.47;5.03;;;;;;;11.92;53.61;101027.09;4991929;28;20149;-78
2023/04/19 00:48:29;;;;;;;9.30;5.22;;;;;;;11.90;53.70;101023.66;4992018;28;20051;-79
2023/04/19 00:50:56;;;;;;;6.13;5.03;;;;;;;11.88;53.80;101030.78;4992056;28;20097;-78
2023/04/19 00:53:22;;;;;;;7.43;5.63;;;;;;;11.85;53.73;101027.34;4992126;28;20061;-78
2023/04/19 00:55:50;;;;;;;7.53;5.70;;;;;;;11.84;53.85;101020.34;4991817;28;20495;-78
2023/04/19 00:58:16;;;;;;;6.50;4.90;;;;;;;11.83;53.87;101023.94;4991842;28;20060;-78
2023/04/19 01:00:43;;;;;;;7.00;5.20;;;;;;;11.81;53.91;101020.47;4992097;28;20054;-78
2023/04/19 01:03:10;;;;;;;9.68;5.50;;;;;;;11.80;53.98;101021.41;4991961;28;20580;-78
2023/04/19 01:05:37;;;;;;;8.00;4.80;;;;;;;11.79;53.95;101014.41;4991548;28;20066;-78
2023/04/19 01:08:03;;;;;;;11.63;5.13;;;;;;;11.77;53.93;101018.88;4991399;28;20065;-78
2023/04/19 01:10:30;;;;;;;7.20;5.18;;;;;;;11.75;54.17;101018.09;4974924;28;20133;-79
2023/04/19 01:12:56;;;;;;;6.95;5.28;;;;;;;11.74;53.91;101019.03;4991917;28;20421;-79
2023/04/19 01:15:23;;;;;;;6.63;5.18;;;;;;;11.71;54.10;101022.63;4991541;28;20060;-78
2023/04/19 01:17:50;;;;;;;8.60;5.90;;;;;;;11.69;54.14;101013.94;4991429;28;20050;-79
2023/04/19 01:20:16;;;;;;;10.13;5.35;;;;;;;11.69;54.09;101010.44;4991621;28;20096;-79
2023/04/19 01:22:43;;;;;;;6.57;4.95;;;;;;;11.67;54.10;101015.75;4991788;28;20058;-79
2023/04/19 01:25:10;;;;;;;7.82;4.80;;;;;;;11.66;54.08;101010.59;4991444;28;20054;-79
2023/04/19 01:27:36;;;;;;;7.47;4.55;;;;;;;11.64;53.95;101013.28;4991225;28;20145;-79
2023/04/19 01:30:04;;;;;;;6.63;4.28;;;;;;;11.63;53.92;101010.69;4991797;28;20476;-79
2023/04/19 01:32:30;;;;;;;5.70;4.50;;;;;;;11.62;54.01;101014.25;4974218;28;20054;-78
2023/04/19 01:34:57;;;;;;;5.60;4.38;;;;;;;11.58;53.88;101014.38;4990881;28;20109;-79
2023/04/19 01:37:24;;;;;;;6.28;4.53;;;;;;;11.57;53.80;101001.25;4991015;28;20046;-79
2023/04/19 01:39:50;;;;;;;8.68;4.38;;;;;;;11.55;53.77;101009.22;4991430;28;20670;-79
2023/04/19 01:42:17;;;;;;;6.45;4.35;;;;;;;11.53;53.70;101013.72;4991405;28;20046;-79
2023/04/19 01:44:43;;;;;;;5.20;4.03;;;;;;;11.51;53.68;101006.78;4991118;28;20387;-79
2023/04/19 01:47:10;;;;;;;6.88;4.65;;;;;;;11.47;53.83;101012.19;4990727;28;20446;-78
2023/04/19 01:49:37;;;;;;;6.43;4.22;;;;;;;11.45;53.64;101008.72;4991305;28;20062;-78
2023/04/19 01:52:03;;;;;;;7.78;4.50;;;;;;;11.42;53.50;101003.59;4991440;28;20073;-78
2023/04/19 01:54:30;;;;;;;6.10;4.90;;;;;;;11.39;53.58;101002.84;4991354;28;20054;-78
2023/04/19 01:56:57;;;;;;;5.07;4.35;;;;;;;11.36;53.49;101009.09;4990717;28;20125;-79
2023/04/19 01:59:23;;;;;;;8.52;4.93;;;;;;;11.32;53.38;101003.13;4991181;28;20047;-79
2023/04/19 02:01:50;;;;;;;6.40;4.60;;;;;;;11.30;53.49;101006.72;4991245;28;20101;-78
2023/04/19 02:04:19;;;;;;;6.75;4.85;;;;;;;11.27;53.44;101015.63;4991136;28;20150;-78
2023/04/19 02:06:46;;;;;;;6.78;4.63;;;;;;;11.26;53.24;101013.03;4990284;28;20101;-78
2023/04/19 02:09:13;;;;;;;6.80;4.32;;;;;;;11.24;53.21;101012.22;4991160;28;20157;-79
2023/04/19 02:11:39;;;;;;;5.72;4.30;;;;;;;11.22;52.95;101012.31;4991012;28;20491;-79
2023/04/19 02:14:06;;;;;;;6.07;4.20;;;;;;;11.20;53.06;101012.38;4991049;28;20434;-78
2023/04/19 02:16:32;;;;;;;6.57;4.68;;;;;;;11.18;52.75;101013.34;4990583;28;20059;-78
2023/04/19 02:19:02;;;;;;;5.50;4.15;;;;;;;11.16;52.76;101015.19;4974076;28;20054;-79
2023/04/19 02:21:28;;;;;;;5.95;4.57;;;;;;;11.15;52.53;101014.34;4991162;28;20165;-79
2023/04/19 02:23:55;;;;;;;6.60;4.53;;;;;;;11.14;52.19;101011.75;4991120;28;20614;-79
2023/04/19 02:26:23;;;;;;;5.97;4.30;;;;;;;11.13;52.15;101018.78;4990628;28;20093;-79
2023/04/19 02:28:51;;;;;;;7.43;4.20;;;;;;;11.11;51.94;101011.88;4973419;28;20108;-78
2023/04/19 02:31:18;;;;;;;6.38;4.47;;;;;;;11.10;51.71;101007.53;4991025;28;20558;-78
2023/04/19 02:33:45;;;;;;;8.02;4.30;;;;;;;11.08;51.57;101013.72;4990712;28;20455;-78
2023/04/19 02:36:12;;;;;;;5.63;4.22;;;;;;;11.05;51.43;101003.28;4990779;28;20062;-78
2023/04/19 02:38:38;;;;;;;6.20;4.20;;;;;;;11.04;51.17;101012.13;4990431;28;20153;-79
2023/04/19 02:41:05;;;;;;;5.90;3.92;;;;;;;11.02;51.26;101013.94;4990880;28;20058;-79
2023/04/19 02:43:31;;;;;;;6.07;4.43;;;;;;;11.00;50.96;101017.56;4990697;28;20495;-79
2023/04/19 02:45:58;;;;;;;6.15;4.40;;;;;;;10.97;50.86;101023.81;4991147;28;20059;-79
2023/04/19 02:48:24;;;;;;;5.03;3.88;;;;;;;10.95;50.60;101021.22;4976989;28;20117;-78
2023/04/19 02:50:51;;;;;;;6.15;4.07;;;;;;;10.93;50.24;101027.47;4994358;28;20161;-79
2023/04/19 02:53:18;;;;;;;5.72;3.92;;;;;;;10.91;49.83;101017.00;4994490;28;20055;-78
2023/04/19 02:55:44;;;;;;;4.38;3.30;;;;;;;10.89;49.60;101017.97;4993909;28;20502;-78
2023/04/19 02:58:11;;;;;;;6.18;3.95;;;;;;;10.86;49.33;101025.97;4994210;28;20058;-79
2023/04/19 03:00:37;;;;;;;6.18;3.42;;;;;;;10.81;48.87;101021.75;4994144;28;20100;-78
2023/04/19 03:03:04;;;;;;;7.22;3.38;;;;;;;10.77;48.66;101019.28;4994471;28;20515;-79
2023/04/19 03:05:31;;;;;;;6.18;3.53;;;;;;;10.73;48.50;101031.69;4993946;28;20433;-78
2023/04/19 03:07:57;;;;;;;7.63;3.42;;;;;;;10.70;48.22;101031.84;5027152;23;20142;-80
2023/04/19 03:10:24;;;;;;;6.35;3.70;;;;;;;10.65;48.10;101028.50;4989874;28;20054;-79
2023/04/19 03:12:50;;;;;;;5.45;3.67;;;;;;;10.63;48.07;101027.69;4992190;28;20516;-79
2023/04/19 03:15:19;;;;;;;10.10;3.42;;;;;;;10.60;48.02;101030.44;4993094;28;20054;-79
2023/04/19 03:17:45;;;;;;;6.40;3.47;;;;;;;10.56;47.77;101019.16;4991733;28;20062;-79
2023/04/19 03:20:12;;;;;;;6.28;3.17;;;;;;;10.52;47.58;101025.47;4993314;28;20065;-79
2023/04/19 03:22:38;;;;;;;5.07;3.65;;;;;;;10.49;47.58;101031.69;4976058;28;20065;-79
2023/04/19 03:25:05;;;;;;;4.80;3.30;;;;;;;10.45;47.55;101027.47;4975391;28;20744;-79
2023/04/19 03:27:34;;;;;;;4.85;3.20;;;;;;;10.40;47.30;101027.56;4992661;28;20058;-79
2023/04/19 03:30:01;;;;;;;5.57;3.30;;;;;;;10.37;47.63;101032.97;4993215;28;20054;-79
2023/04/19 03:32:27;;;;;;;9.45;3.75;;;;;;;10.33;47.40;101035.75;4993248;28;20117;-79
2023/04/19 03:34:53;;;;;;;4.72;3.05;;;;;;;10.30;47.56;101034.97;4992739;28;20046;-80
2023/04/19 03:37:20;;;;;;;5.05;2.92;;;;;;;10.27;47.44;101031.56;4992570;28;20105;-79
2023/04/19 03:39:46;;;;;;;4.53;3.00;;;;;;;10.23;47.21;101033.44;4992981;28;20090;-79
2023/04/19 03:42:12;;;;;;;5.07;3.15;;;;;;;10.19;47.16;101031.84;4992750;28;20116;-79
2023/04/19 03:44:39;;;;;;;5.15;2.90;;;;;;;10.15;46.99;101033.72;4993065;28;20062;-80
2023/04/19 03:47:05;;;;;;;5.07;3.17;;;;;;;10.11;47.14;101031.25;4992147;28;20476;-80
2023/04/19 03:49:32;;;;;;;7.43;3.13;;;;;;;10.06;46.90;101031.41;4992976;28;20058;-79
2023/04/19 03:51:58;;;;;;;4.70;2.90;;;;;;;10.03;47.04;101026.25;4992560;28;20058;-79
2023/04/19 03:54:25;;;;;;;5.32;2.83;;;;;;;9.97;46.78;101027.31;4992521;28;20101;-79
2023/04/19 03:56:51;;;;;;;4.32;2.78;;;;;;;9.93;46.85;101030.09;4974380;28;20054;-79
2023/04/19 03:59:17;;;;;;;5.47;3.25;;;;;;;9.88;46.79;101027.63;4992601;28;20501;-79
2023/04/19 04:01:45;;;;;;;4.03;2.72;;;;;;;9.82;47.06;101030.44;4992347;28;20504;-79
2023/04/19 04:04:11;;;;;;;6.25;2.67;;;;;;;9.77;47.03;101039.34;4992473;28;20144;-79
2023/04/19 04:06:38;;;;;;;5.85;3.00;;;;;;;9.71;46.72;101026.41;4991538;28;20054;-80
2023/04/19 04:09:04;;;;;;;3.70;3.08;;;;;;;9.66;46.89;101028.34;4992118;28;20065;-79
2023/04/19 04:11:31;;;;;;;5.25;2.72;;;;;;;9.61;46.92;101035.53;4975142;28;20054;-79
2023/04/19 04:13:57;;;;;;;3.85;2.90;;;;;;;9.57;47.17;101034.75;4992297;28;20113;-79
2023/04/19 04:16:24;;;;;;;4.20;2.80;;;;;;;9.51;47.25;101033.19;4991775;28;20402;-79
2023/04/19 04:18:50;;;;;;;4.05;2.67;;;;;;;9.47;47.11;101028.94;4991862;28;20089;-79
2023/04/19 04:21:16;;;;;;;5.22;2.67;;;;;;;9.41;47.04;101029.13;4992155;28;20057;-79
2023/04/19 04:23:44;;;;;;;3.78;2.58;;;;;;;9.36;47.07;101029.28;4992036;28;20321;-79
2023/04/19 04:26:12;;;;;;;9.23;2.65;;;;;;;9.30;47.15;101037.34;4991639;28;20058;-79
2023/04/19 04:28:39;;;;;;;4.28;2.45;;;;;;;9.24;46.99;101034.91;4991611;28;20058;-79
2023/04/19 04:31:05;;;;;;;3.53;2.28;;;;;;;9.18;47.23;101042.97;4992007;28;20173;-79
2023/04/19 04:33:31;;;;;;;2.95;2.40;;;;;;;9.13;47.02;101045.75;4974546;28;20069;-79
2023/04/19 04:35:58;;;;;;;5.53;2.90;;;;;;;9.08;47.33;101039.78;4991530;28;20070;-79
2023/04/19 04:38:24;;;;;;;4.03;2.70;;;;;;;9.02;47.02;101042.56;4991162;28;20058;-79
2023/04/19 04:40:54;;;;;;;3.78;2.85;;;;;;;8.94;47.44;101045.44;4991776;28;20058;-79
2023/04/19 04:43:27;;;;;;;6.38;2.55;;;;;;;8.88;47.23;101035.97;4991848;28;20094;-79
2023/04/19 04:45:56;;;;;;;;;;;;;;;8.87;47.34;101044.75;4991963;28;20426;-79
2023/04/19 04:48:23;;;;;;;3.95;2.38;;;;;;;8.85;47.41;101042.16;4991106;28;19984;-79
2023/04/19 04:50:49;;;;;;;5.90;2.42;;;;;;;8.79;47.75;101041.50;4991446;28;20066;-79
2023/04/19 04:53:15;;;;;;;5.93;2.75;;;;;;;8.72;47.62;101033.78;4991355;28;20109;-78
2023/04/19 04:55:42;;;;;;;2.92;2.30;;;;;;;8.68;47.78;101041.78;4991370;28;20054;-79
2023/04/19 04:58:08;;;;;;;3.70;2.53;;;;;;;8.64;47.74;101043.66;4990934;28;20050;-79
2023/04/19 05:00:35;;;;;;;3.60;2.67;;;;;;;8.59;48.00;101038.53;4991464;28;20058;-80
2023/04/19 05:03:01;;;;;;;5.80;2.90;;;;;;;8.57;47.76;101050.81;4991329;28;20436;-79
2023/04/19 05:05:28;;;;;;;3.92;2.28;;;;;;;8.55;47.92;101038.63;4990798;28;20488;-79
2023/04/19 05:07:55;;;;;;;3.83;2.63;;;;;;;8.51;47.95;101050.97;4990554;28;20512;-79
2023/04/19 05:10:21;;;;;;;3.63;2.53;;;;;;;8.48;47.93;101051.91;4991209;28;20054;-80
2023/04/19 05:12:48;;;;;;;5.57;2.78;;;;;;;8.43;47.95;101045.94;4991227;28;20068;-80
2023/04/19 05:15:14;;;;;;;8.07;2.90;;;;;;;8.38;48.01;101047.81;4990759;28;20050;-80
2023/04/19 05:17:41;;;;;;;3.80;2.65;;;;;;;8.37;48.06;101045.25;4990588;28;20069;-80
2023/04/19 05:20:08;;;;;;;5.07;3.22;;;;;;;8.33;48.21;101047.94;4990986;28;20065;-81
2023/04/19 05:22:35;;;;;;;3.38;2.53;;;;;;;8.32;48.20;101045.34;4991274;28;20058;-83
2023/04/19 05:25:01;;;;;;;4.10;2.55;;;;;;;8.28;48.30;101047.22;4973276;28;20056;-80
2023/04/19 05:27:28;;;;;;;4.78;2.50;;;;;;;8.28;48.51;101046.34;4990698;28;20093;-80
2023/04/19 05:29:54;;;;;;;4.90;2.47;;;;;;;8.26;48.46;101048.16;4990828;28;20058;-80
2023/04/19 05:32:21;;;;;;;4.30;2.30;;;;;;;8.24;48.74;101044.69;4990873;28;20485;-80
2023/04/19 05:34:47;;;;;;;3.72;2.47;;;;;;;8.23;48.38;101051.72;4990834;28;20062;-80
2023/04/19 05:37:14;;;;;;;3.33;2.42;;;;;;;8.22;48.84;101057.84;4990373;28;20089;-80
2023/04/19 05:39:40;;;;;;;5.07;2.70;;;;;;;8.22;48.83;101057.84;4990827;28;20058;-80
2023/04/19 05:42:09;;;;;;;7.60;2.97;;;;;;;8.23;48.97;101058.72;4990828;28;20086;-80
2023/04/19 05:44:36;;;;;;;5.55;2.85;;;;;;;8.21;49.05;101051.75;4973246;28;20054;-80
2023/04/19 05:47:02;;;;;;;11.15;2.67;;;;;;;8.21;48.65;101057.00;4972522;28;20065;-80
2023/04/19 05:49:29;;;;;;;5.07;3.10;;;;;;;8.21;48.97;101051.75;4990686;28;20062;-80
2023/04/19 05:51:55;;;;;;;4.60;3.15;;;;;;;8.24;49.02;101055.19;4990771;28;20054;-80
2023/04/19 05:54:22;;;;;;;8.02;3.53;;;;;;;8.25;49.19;101057.78;4990559;28;20058;-80
2023/04/19 05:56:48;;;;;;;4.05;3.05;;;;;;;8.24;49.21;101053.44;4989853;28;20108;-80
2023/04/19 05:59:15;;;;;;;9.88;3.50;;;;;;;8.26;49.24;101054.25;4990566;28;20062;-81
2023/04/19 06:01:41;;;;;;;5.03;3.65;;;;;;;8.30;49.12;101047.16;4990291;28;20058;-80
2023/04/19 06:04:08;;;;;;;6.40;3.83;;;;;;;8.30;49.19;101048.00;4990824;28;20093;-80
2023/04/19 06:06:36;;;;;;;6.47;3.88;;;;;;;8.32;49.12;101051.47;4989575;28;20107;-80
2023/04/19 06:09:03;;;;;;;5.20;3.50;;;;;;;8.35;49.16;101050.53;4990407;28;20058;-80
2023/04/19 06:11:29;;;;;;;4.95;3.30;;;;;;;8.36;49.08;101049.63;4973134;28;20124;-80
2023/04/19 06:14:13;;;;;;;5.00;3.30;;;;;;;8.38;49.12;101046.94;4975870;28;20476;-80
2023/04/19 06:16:40;;;;;;;6.90;3.25;;;;;;;8.38;49.20;101046.94;4972425;28;20058;-80
2023/04/19 06:19:07;;;;;;;7.05;3.75;;;;;;;8.39;49.27;101057.41;4990794;28;20393;-80
2023/04/19 06:21:34;;;;;;;5.20;3.30;;;;;;;8.41;49.24;101058.22;4992237;28;20066;-80
2023/04/19 06:24:00;;;;;;;6.18;3.35;;;;;;;8.41;49.16;101055.59;4994421;28;20527;-80
2023/04/19 06:26:27;;;;;;;7.35;3.75;;;;;;;8.42;49.16;101056.47;4993593;28;20101;-80
2023/04/19 06:28:53;;;;;;;7.10;3.42;;;;;;;8.44;49.48;101049.41;4976776;28;20057;-80
2023/04/19 06:31:20;;;;;;;5.28;2.92;;;;;;;8.49;49.69;101060.66;4976918;28;20468;-80
2023/04/19 06:33:46;;;;;;;6.13;2.83;;;;;;;8.51;49.78;101044.84;4976963;28;20053;-80
2023/04/19 06:36:13;;;;;;;6.05;3.17;;;;;;;8.58;49.91;101055.19;4976399;28;20058;-80
2023/04/19 06:38:40;;;;;;;4.00;2.60;;;;;;;8.63;49.76;101052.41;4993692;28;20060;-80
2023/04/19 06:41:08;;;;;;;4.03;2.60;;;;;;;8.70;49.62;101051.34;4993814;28;20592;-80
2023/04/19 06:43:34;;;;;;;6.07;2.78;;;;;;;8.77;49.50;101046.78;4976779;28;20553;-81
2023/04/19 06:46:03;;;;;;;3.45;2.25;;;;;;;8.83;49.38;101054.47;4993452;28;20062;-80
2023/04/19 06:48:29;;;;;;;3.05;2.15;;;;;;;8.92;49.34;101057.72;4993428;28;20513;-80
2023/04/19 06:50:56;;;;;;;3.60;2.35;;;;;;;8.96;49.30;101052.38;4993978;28;20062;-80
2023/04/19 06:53:22;;;;;;;3.47;2.10;;;;;;;9.02;49.47;101045.19;4993603;28;20046;-80
2023/04/19 06:55:58;;;;;;;3.33;2.38;;;;;;;9.05;49.31;101059.09;4993291;28;20445;-80
2023/04/19 06:58:26;;;;;;;2.72;1.98;;;;;;;9.14;49.47;101057.97;4975955;28;20058;-80
2023/04/19 07:00:53;;;;;;;4.22;1.92;;;;;;;9.19;49.26;101056.06;4993701;28;20420;-80
2023/04/19 07:03:20;;;;;;;8.15;2.38;;;;;;;9.27;49.27;101060.22;4993545;28;20109;-80
2023/04/19 07:05:47;;;;;;;3.10;1.90;;;;;;;9.33;49.20;101066.16;4993223;28;20066;-80
2023/04/19 07:08:14;;;;;;;5.32;2.17;;;;;;;9.38;48.94;101056.34;4974978;28;20054;-80
2023/04/19 07:10:42;;;;;;;2.45;1.85;;;;;;;9.44;49.02;101059.69;4993806;28;20066;-80
2023/04/19 07:13:12;;;;;;;4.95;1.70;;;;;;;9.51;48.70;101058.59;4993442;28;20509;-80
2023/04/19 07:15:39;;;;;;;2.55;1.70;;;;;;;9.56;49.07;101063.69;4993174;28;20089;-80
2023/04/19 07:18:05;;;;;;;3.95;2.10;;;;;;;9.62;48.62;101066.16;4992850;28;20141;-80
2023/04/19 07:20:32;;;;;;;3.70;2.10;;;;;;;9.66;48.98;101059.88;4993343;28;20146;-80
2023/04/19 07:22:59;;;;;;;2.70;2.22;;;;;;;9.73;48.89;101060.56;4993042;28;20062;-80
2023/04/19 07:25:26;;;;;;;3.65;1.83;;;;;;;9.80;48.54;101069.09;4975548;28;20142;-80
2023/04/19 07:27:53;;;;;;;3.53;1.88;;;;;;;9.84;48.58;101070.72;4993005;28;20062;-80
2023/04/19 07:30:20;;;;;;;2.70;1.90;;;;;;;9.90;48.61;101062.63;4975894;28;20050;-80
2023/04/19 07:32:46;;;;;;;2.78;1.92;;;;;;;9.97;48.48;101065.91;4992596;28;20054;-79
2023/04/19 07:35:13;;;;;;;3.00;1.98;;;;;;;10.01;48.31;101068.38;4992485;28;20058;-79
2023/04/19 07:37:39;;;;;;;2.92;1.90;;;;;;;10.06;48.55;101056.84;4992609;28;20065;-80
2023/04/19 07:40:06;;;;;;;4.93;2.10;;;;;;;10.13;48.58;101061.00;4975890;28;20073;-80
2023/04/19 07:42:33;;;;;;;2.67;1.85;;;;;;;10.19;48.49;101047.63;4993028;28;20062;-80
2023/04/19 07:44:59;;;;;;;2.60;1.70;;;;;;;10.25;48.31;101047.41;4975362;28;20517;-80
2023/04/19 07:47:25;;;;;;;3.42;1.88;;;;;;;10.32;48.28;101048.03;4975229;28;20105;-80
2023/04/19 07:49:52;;;;;;;6.53;1.75;;;;;;;10.38;48.20;101041.72;4992605;28;20062;-80
2023/04/19 07:52:19;;;;;;;3.80;1.70;;;;;;;10.45;48.36;101039.75;4993021;28;20066;-80
2023/04/19 07:54:46;;;;;;;2.03;1.50;;;;;;;10.50;47.96;101045.72;4992621;28;20386;-80
2023/04/19 07:57:12;;;;;;;2.20;1.80;;;;;;;10.55;47.76;101044.63;4992245;28;20064;-80
2023/04/19 07:59:38;;;;;;;4.57;2.08;;;;;;;10.61;47.75;101040.91;4992642;28;20054;-80
2023/04/19 08:02:06;;;;;;;4.32;2.05;;;;;;;10.67;47.93;101038.06;4992534;28;20109;-80
2023/04/19 08:04:32;;;;;;;3.58;1.83;;;;;;;10.73;47.99;101039.59;4992282;28;20062;-80
2023/04/19 08:06:59;;;;;;;6.13;2.05;;;;;;;10.80;47.81;101029.69;4991753;28;20061;-80
2023/04/19 08:09:26;;;;;;;5.15;1.83;;;;;;;10.88;47.58;101046.06;4992344;28;20137;-80
2023/04/19 08:11:52;;;;;;;7.13;2.15;;;;;;;10.94;47.33;101034.44;4992438;28;20552;-80
2023/04/19 08:14:19;;;;;;;5.20;1.85;;;;;;;11.01;47.39;101037.72;4975072;28;20051;-80
2023/04/19 08:17:00;;;;;;;2.30;1.80;;;;;;;11.07;46.99;101034.84;4991491;28;20058;-80
2023/04/19 08:19:29;;;;;;;4.70;1.83;;;;;;;11.10;47.01;101031.25;4992541;28;20066;-80
2023/04/19 08:21:56;;;;;;;4.40;1.75;;;;;;;11.14;46.64;101023.13;4992397;28;20062;-80
2023/04/19 08:24:22;;;;;;;2.47;1.63;;;;;;;11.21;46.48;101034.28;4992516;28;20062;-80
2023/04/19 08:26:52;;;;;;;2.15;1.60;;;;;;;11.25;46.52;101024.50;4991233;28;20137;-80
2023/04/19 08:29:20;;;;;;;2.58;1.50;;;;;;;11.31;46.62;101026.88;4992453;28;20093;-80
2023/04/19 08:31:47;;;;;;;4.03;2.13;;;;;;;11.38;46.50;101027.50;4992218;28;20424;-80
2023/04/19 08:34:14;;;;;;;5.20;2.03;;;;;;;11.45;46.40;101019.28;4992050;28;20058;-80
2023/04/19 08:36:40;;;;;;;2.67;2.00;;;;;;;11.52;46.39;101027.84;4991233;28;20051;-80
2023/04/19 08:39:21;;;;;;;3.95;1.88;;;;;;;11.62;46.34;101023.00;4991810;28;20525;-80
2023/04/19 08:42:05;;;;;;;3.33;2.05;;;;;;;11.69;45.97;101024.50;4976131;28;20054;-79
2023/04/19 08:44:50;;;;;;;2.30;1.70;;;;;;;11.81;45.88;101020.47;4990631;28;20058;-80
2023/04/19 08:47:36;;;;;;;3.65;2.00;;;;;;;11.91;46.03;101020.94;4991470;28;20053;-80
2023/04/19 08:50:23;;;;;;;3.05;2.08;;;;;;;12.02;45.87;101015.22;4991821;28;20057;-80
2023/04/19 08:53:01;;;;;;;2.50;1.85;;;;;;;12.10;45.89;101010.50;4976148;28;20066;-80
2023/04/19 08:55:31;;;;;;;4.45;2.10;;;;;;;12.21;45.93;101007.41;4991278;28;20062;-80
2023/04/19 08:57:57;;;;;;;4.35;2.20;;;;;;;12.31;45.53;101004.34;4991204;28;20058;-80
2023/04/19 09:00:24;;;;;;;3.33;2.03;;;;;;;12.43;45.48;101000.28;4991456;28;20497;-80
2023/04/19 09:02:53;;;;;;;2.67;1.73;;;;;;;12.56;44.71;101009.38;4974152;28;20124;-80
2023/04/19 09:05:20;;;;;;;3.25;1.80;;;;;;;12.68;44.61;101007.13;4990993;28;20505;-80
2023/04/19 09:10:20;;;;;;;4.20;2.60;;;;;;;12.88;44.29;100995.63;4999036;23;20545;-78
2023/04/19 09:13:03;;;;;;;4.13;1.80;;;;;;;12.94;44.04;100998.00;4991950;28;20081;-78
2023/04/19 09:15:38;;;;;;;3.45;1.98;;;;;;;13.07;44.05;100984.16;4991580;28;20073;-78
2023/04/19 09:18:08;;;;;;;2.55;1.90;;;;;;;13.21;44.42;100987.03;4991548;28;20057;-78
2023/04/19 09:20:40;;;;;;;7.50;2.03;;;;;;;13.33;44.05;100985.56;4992041;28;20085;-78
2023/04/19 09:23:11;;;;;;;2.50;1.85;;;;;;;13.47;43.42;100991.97;4991944;28;20157;-78
2023/04/19 09:25:38;;;;;;;3.10;1.90;;;;;;;13.58;43.20;100989.69;4991504;28;20050;-77
2023/04/19 09:28:26;;;;;;;7.88;2.28;;;;;;;13.71;43.46;100986.44;4991833;28;20048;-78
2023/04/19 09:30:54;;;;;;;3.83;2.25;;;;;;;13.82;42.98;100970.84;4991793;28;20050;-78
2023/04/19 09:33:40;;;;;;;2.95;2.20;;;;;;;13.94;42.92;100972.84;4991784;28;20089;-78
2023/04/19 09:36:08;;;;;;;4.00;2.05;;;;;;;14.04;42.68;100969.72;4991188;28;20100;-78
2023/04/19 09:38:48;;;;;;;4.45;2.15;;;;;;;14.10;41.82;100969.44;4991009;28;20483;-78
2023/04/19 09:41:16;;;;;;;4.72;2.42;;;;;;;14.24;42.45;100959.91;4991829;28;20052;-78
2023/04/19 09:43:43;;;;;;;4.05;2.33;;;;;;;14.30;42.42;100957.78;4991612;28;20061;-78
2023/04/19 09:46:35;;;;;;;4.50;2.28;;;;;;;14.34;40.71;100961.09;4991207;28;20051;-78
2023/04/19 09:49:23;;;;;;;10.82;2.08;;;;;;;14.40;41.01;100954.63;4991446;28;20058;-78
2023/04/19 09:52:12;;;;;;;5.75;2.47;;;;;;;14.46;40.27;100949.84;4991589;28;20053;-78
2023/04/19 09:54:40;;;;;;;3.80;2.72;;;;;;;14.48;41.05;100957.72;4991279;28;20117;-78
2023/04/19 09:57:07;;;;;;;5.97;2.63;;;;;;;14.51;41.25;100940.78;4990691;28;20153;-78
2023/04/19 09:59:34;;;;;;;5.15;2.40;;;;;;;14.54;41.06;100949.41;4991525;28;20057;-78
2023/04/19 10:02:03;;;;;;;4.70;2.30;;;;;;;14.57;40.47;100935.16;4991280;28;20100;-78
2023/04/19 10:04:29;;;;;;;3.08;2.30;;;;;;;14.61;40.13;100923.44;4991369;28;20498;-78
2023/04/19 10:07:16;;;;;;;3.33;2.25;;;;;;;14.64;40.43;100931.22;4990788;28;20050;-78
2023/04/19 10:09:47;;;;;;;4.72;2.13;;;;;;;14.67;40.47;100922.25;4991224;28;20062;-78
2023/04/19 10:12:23;;;;;;;5.10;2.30;;;;;;;14.71;40.51;100924.66;4991355;28;20068;-78
2023/04/19 10:15:12;;;;;;;3.58;2.30;;;;;;;14.79;40.47;100918.94;4990709;28;20057;-78
2023/04/19 10:17:39;;;;;;;2.83;2.35;;;;;;;14.87;40.40;100915.84;4990739;28;20054;-78
2023/04/19 10:20:09;;;;;;;4.80;2.22;;;;;;;14.94;39.43;100919.88;4991114;28;20050;-78
2023/04/19 10:22:37;;;;;;;4.75;2.30;;;;;;;15.03;40.20;100912.34;4991268;28;20050;-78
2023/04/19 10:25:11;;;;;;;5.22;2.38;;;;;;;15.09;39.56;100912.84;4990736;28;20531;-78
2023/04/19 10:27:40;;;;;;;3.97;2.38;;;;;;;15.21;39.99;100907.75;4990721;28;20486;-78
2023/04/19 10:30:17;;;;;;;3.70;2.35;;;;;;;15.29;39.65;100917.94;4991041;28;20128;-78
2023/04/19 10:32:46;;;;;;;5.40;2.30;;;;;;;15.41;39.68;100893.34;4991001;28;20487;-78
2023/04/19 10:35:22;;;;;;;6.47;2.60;;;;;;;15.49;38.83;100891.09;4991010;28;20046;-78
2023/04/19 10:38:08;;;;;;;5.70;2.33;;;;;;;15.57;39.14;100892.41;4990679;28;20066;-78
2023/04/19 10:40:50;;;;;;;3.38;2.15;;;;;;;15.69;38.81;100888.16;4991096;28;20046;-78
2023/04/19 10:43:18;;;;;;;5.47;2.20;;;;;;;15.81;39.76;100876.81;4991261;28;20082;-78
2023/04/19 10:45:45;;;;;;;3.53;2.05;;;;;;;15.93;39.80;100877.00;4990625;28;20058;-78
2023/04/19 10:48:34;;;;;;;3.42;2.20;;;;;;;16.02;37.51;100881.78;4990864;28;20054;-78
2023/04/19 10:51:02;;;;;;;5.90;2.38;;;;;;;16.21;39.13;100877.97;4990937;28;20042;-78
2023/04/19 10:53:58;;;;;;;2.92;2.10;;;;;;;16.33;38.79;100882.50;4973313;28;20050;-78
2023/04/19 10:56:34;;;;;;;2.85;2.30;;;;;;;16.56;38.83;100884.66;4990530;28;20057;-78
2023/04/19 11:01:31;;;;;;;3.28;2.10;;;;;;;17.13;38.95;100866.81;4990820;28;20165;-78
2023/04/19 11:03:58;;;;;;;3.22;2.40;;;;;;;17.55;40.53;100872.84;4990811;28;20487;-78
2023/04/19 11:06:26;;;;;;;2.40;2.20;;;;;;;18.05;40.46;100866.72;4990509;28;20144;-78
2023/04/19 11:08:53;;;;;;;2.90;2.20;;;;;;;18.64;39.66;100850.19;4994259;28;20062;-78
2023/04/19 11:11:20;;;;;;;3.83;2.20;;;;;;;19.22;40.25;100847.63;4994611;28;20105;-78
2023/04/19 11:13:47;;;;;;;3.65;2.00;;;;;;;19.81;38.96;100852.13;4994214;28;20050;-78
2023/04/19 11:16:14;;;;;;;3.40;2.22;;;;;;;20.35;37.71;100839.81;4993578;28;20149;-78
2023/04/19 11:18:44;;;;;;;2.60;1.90;;;;;;;20.86;36.92;100837.44;4993921;28;20475;-78
2023/04/19 11:21:16;;;;;;;2.60;2.00;;;;;;;21.32;34.88;100832.75;4992836;28;20055;-78
2023/04/19 11:23:43;;;;;;;3.85;2.35;;;;;;;21.80;35.68;100825.16;4994194;28;20050;-79
2023/04/19 11:26:10;;;;;;;3.20;2.30;;;;;;;22.24;36.12;100826.69;4993652;28;20042;-78
2023/04/19 11:28:40;;;;;;;3.40;2.35;;;;;;;22.67;33.80;100827.31;4993594;28;20057;-78
2023/04/19 11:31:06;;;;;;;2.90;2.22;;;;;;;23.10;34.19;100827.03;4993989;28;20086;-78
2023/04/19 11:33:35;;;;;;;2.28;2.08;;;;;;;23.40;33.03;100811.72;4993823;28;20559;-79
2023/04/19 11:36:02;;;;;;;3.38;1.80;;;;;;;23.67;32.51;100802.00;4993493;28;20479;-78
2023/04/19 11:38:29;;;;;;;3.28;2.20;;;;;;;23.89;32.27;100799.91;4993656;28;20141;-78